createdAt,value
2023-05-13T00:01:49.267Z,6.90
2023-05-13T00:06:52.248Z,6.57
2023-05-13T00:11:54.193Z,7.78
2023-05-13T00:16:56.532Z,6.80
2023-05-13T00:21:58.140Z,6.45
2023-05-13T00:26:59.753Z,7.47
2023-05-13T00:32:01.575Z,7.53
2023-05-13T00:37:03.450Z,7.85
2023-05-13T00:42:05.968Z,7.88
2023-05-13T00:47:08.008Z,6.22
2023-05-13T00:52:09.655Z,7.45
2023-05-13T00:57:13.303Z,8.23
2023-05-13T01:02:32.910Z,7.97
2023-05-13T01:07:51.187Z,8.23
2023-05-13T01:12:57.936Z,7.63
2023-05-13T01:18:07.550Z,8.40
2023-05-13T01:23:12.655Z,7.07
2023-05-13T01:28:14.560Z,7.45
2023-05-13T01:33:19.951Z,6.70
2023-05-13T01:38:21.913Z,8.23
2023-05-13T01:43:28.457Z,7.00
2023-05-13T01:48:30.171Z,6.68
2023-05-13T01:53:33.017Z,6.22
2023-05-13T01:58:34.690Z,5.80
2023-05-13T02:03:37.772Z,5.13
2023-05-13T02:08:39.554Z,6.03
2023-05-13T02:13:41.587Z,6.47
2023-05-13T02:18:43.415Z,5.20
2023-05-13T02:23:45.214Z,6.63
2023-05-13T02:28:48.248Z,7.60
2023-05-13T02:33:50.219Z,8.02
2023-05-13T02:38:52.342Z,8.00
2023-05-13T02:43:54.450Z,8.25
2023-05-13T02:48:56.559Z,8.70
2023-05-13T02:53:58.711Z,8.57
2023-05-13T02:59:02.095Z,7.05
2023-05-13T03:04:04.024Z,9.95
2023-05-13T03:09:05.745Z,7.85
2023-05-13T03:14:08.414Z,8.10
2023-05-13T03:19:10.160Z,9.23
2023-05-13T03:24:12.011Z,7.78
2023-05-13T03:29:13.916Z,9.10
2023-05-13T03:34:16.091Z,9.35
2023-05-13T03:39:17.835Z,8.02
2023-05-13T03:44:19.613Z,8.07
2023-05-13T03:49:21.586Z,8.15
2023-05-13T03:54:23.337Z,8.57
2023-05-13T03:59:25.057Z,7.90
2023-05-13T04:04:26.862Z,9.38
2023-05-13T04:09:28.539Z,9.05
2023-05-13T04:14:30.620Z,10.50
2023-05-13T04:19:32.325Z,8.88
2023-05-13T04:24:34.052Z,8.48
2023-05-13T04:29:35.667Z,5.97
2023-05-13T04:34:37.571Z,7.28
2023-05-13T04:39:39.483Z,6.63
2023-05-13T04:44:41.619Z,4.82
2023-05-13T04:49:43.375Z,6.13
2023-05-13T04:54:45.736Z,4.97
2023-05-13T04:59:47.508Z,5.65
2023-05-13T05:04:50.735Z,5.45
2023-05-13T05:09:53.116Z,4.40
2023-05-13T05:14:55.150Z,4.57
2023-05-13T05:19:57.162Z,5.18
2023-05-13T05:24:59.218Z,3.53
2023-05-13T05:30:00.943Z,5.10
2023-05-13T05:35:05.995Z,4.78
2023-05-13T05:40:09.127Z,3.20
2023-05-13T05:45:14.512Z,3.90
2023-05-13T05:50:17.822Z,3.42
2023-05-13T05:55:20.424Z,3.80
2023-05-13T06:00:22.666Z,3.67
2023-05-13T06:05:24.396Z,3.40
2023-05-13T06:10:26.617Z,3.42
2023-05-13T06:15:29.059Z,3.58
2023-05-13T06:20:30.827Z,3.10
2023-05-13T06:25:32.543Z,3.22
2023-05-13T06:30:34.271Z,2.92
2023-05-13T06:35:37.371Z,2.97
2023-05-13T06:40:40.565Z,2.95
2023-05-13T06:45:42.630Z,2.50
2023-05-13T06:50:44.525Z,2.60
2023-05-13T06:55:46.205Z,2.75
2023-05-13T07:00:47.844Z,2.92
2023-05-13T07:05:49.562Z,1.90
2023-05-13T07:10:51.250Z,2.13
2023-05-13T07:15:53.369Z,2.30
2023-05-13T07:20:56.304Z,3.40
2023-05-13T07:25:57.956Z,2.00
2023-05-13T07:30:59.786Z,2.80
2023-05-13T07:36:01.987Z,3.35
2023-05-13T07:41:03.706Z,2.40
2023-05-13T07:46:05.390Z,2.88
2023-05-13T07:51:07.102Z,3.28
2023-05-13T07:56:08.837Z,2.33
2023-05-13T08:01:10.568Z,2.45
2023-05-13T08:06:12.337Z,1.65
2023-05-13T08:11:14.052Z,1.70
2023-05-13T08:16:16.048Z,2.05
2023-05-13T08:21:17.720Z,1.90
2023-05-13T08:26:19.593Z,2.10
2023-05-13T08:31:21.426Z,2.08
2023-05-13T08:36:23.366Z,2.17
2023-05-13T08:41:28.946Z,2.20
2023-05-13T08:46:32.899Z,2.70
2023-05-13T08:51:34.647Z,2.80
2023-05-13T08:56:37.342Z,2.50
2023-05-13T09:01:39.283Z,2.10
2023-05-13T09:06:41.008Z,2.42
2023-05-13T09:11:44.667Z,2.70
2023-05-13T09:16:48.167Z,2.17
2023-05-13T09:21:49.870Z,1.92
2023-05-13T09:26:51.950Z,3.10
2023-05-13T09:32:01.572Z,2.10
2023-05-13T09:37:08.785Z,2.17
2023-05-13T09:42:19.181Z,1.83
2023-05-13T09:47:21.088Z,2.17
2023-05-13T09:52:22.798Z,2.15
2023-05-13T09:57:26.609Z,2.17
2023-05-13T10:02:28.857Z,3.22
2023-05-13T10:07:34.041Z,2.80
2023-05-13T10:12:37.700Z,2.75
2023-05-13T10:17:39.892Z,2.47
2023-05-13T10:22:41.995Z,3.05
2023-05-13T10:27:44.757Z,2.25
2023-05-13T10:32:46.573Z,2.10
2023-05-13T10:38:00.412Z,2.28
2023-05-13T10:43:17.333Z,2.78
2023-05-13T10:48:19.539Z,2.40
2023-05-13T10:53:25.708Z,2.22
2023-05-13T10:58:31.667Z,2.00
2023-05-13T11:03:34.023Z,2.42
2023-05-13T11:08:41.785Z,2.13
2023-05-13T11:13:43.583Z,3.05
2023-05-13T11:18:45.405Z,2.90
2023-05-13T11:23:57.020Z,3.13
2023-05-13T11:29:06.312Z,2.78
2023-05-13T11:34:13.118Z,2.40
2023-05-13T11:39:20.313Z,1.90
2023-05-13T11:44:24.166Z,2.63
2023-05-13T11:49:33.563Z,1.77
2023-05-13T11:54:48.548Z,1.95
2023-05-13T11:59:57.933Z,1.10
2023-05-13T12:05:01.874Z,1.40
2023-05-13T12:10:05.212Z,1.60
2023-05-13T12:15:10.209Z,1.75
2023-05-13T12:20:22.788Z,1.30
2023-05-13T12:25:45.346Z,1.45
2023-05-13T12:30:54.282Z,1.38
2023-05-13T12:36:15.943Z,1.30
2023-05-13T12:41:17.961Z,1.42
2023-05-13T12:46:20.062Z,1.25
2023-05-13T12:51:21.928Z,2.30
2023-05-13T12:56:24.453Z,2.50
2023-05-13T13:01:26.229Z,1.52
2023-05-13T13:06:28.389Z,1.90
2023-05-13T13:11:30.118Z,1.30
2023-05-13T13:16:31.902Z,1.60
2023-05-13T13:21:34.050Z,1.55
2023-05-13T13:26:35.729Z,1.70
2023-05-13T13:31:37.385Z,1.77
2023-05-13T13:36:39.634Z,1.60
2023-05-13T13:41:41.341Z,2.00
2023-05-13T13:46:43.040Z,1.55
2023-05-13T13:51:44.743Z,1.70
2023-05-13T13:56:46.454Z,1.48
2023-05-13T14:01:48.162Z,1.80
2023-05-13T14:06:50.652Z,1.40
2023-05-13T14:11:52.341Z,2.65
2023-05-13T14:16:54.075Z,1.83
2023-05-13T14:21:56.173Z,1.70
2023-05-13T14:26:58.582Z,1.65
2023-05-13T14:32:02.114Z,2.30
2023-05-13T14:37:04.006Z,2.00
2023-05-13T14:42:06.037Z,2.55
2023-05-13T14:47:08.122Z,2.22
2023-05-13T14:52:10.019Z,1.90
2023-05-13T14:57:11.698Z,1.65
2023-05-13T15:02:13.988Z,3.00
2023-05-13T15:07:15.723Z,3.00
2023-05-13T15:12:17.360Z,2.20
2023-05-13T15:17:19.335Z,2.83
2023-05-13T15:22:21.221Z,2.22
2023-05-13T15:27:22.990Z,2.95
2023-05-13T15:32:24.641Z,1.80
2023-05-13T15:37:26.290Z,2.25
2023-05-13T15:42:28.729Z,2.83
2023-05-13T15:47:30.576Z,1.92
2023-05-13T15:52:32.452Z,1.85
2023-05-13T15:57:34.107Z,1.83
2023-05-13T16:02:39.355Z,2.95
2023-05-13T16:07:42.400Z,1.35
2023-05-13T16:12:44.161Z,1.95
2023-05-13T16:17:45.908Z,1.75
2023-05-13T16:22:48.108Z,1.98
2023-05-13T16:27:49.784Z,2.97
2023-05-13T16:32:53.473Z,2.00
2023-05-13T16:37:55.159Z,2.05
2023-05-13T16:42:59.285Z,2.25
2023-05-13T16:53:04.358Z,3.78
2023-05-13T16:58:06.030Z,3.10
2023-05-13T17:03:07.909Z,2.50
2023-05-13T17:08:09.894Z,3.22
2023-05-13T17:13:11.842Z,3.80
2023-05-13T17:18:15.551Z,3.25
2023-05-13T17:23:17.323Z,3.90
2023-05-13T17:28:19.007Z,4.82
2023-05-13T17:33:21.708Z,4.60
2023-05-13T17:38:23.782Z,4.10
2023-05-13T17:43:25.553Z,3.22
2023-05-13T17:48:27.337Z,3.65
2023-05-13T17:53:29.103Z,3.75
2023-05-13T17:58:30.930Z,3.35
2023-05-13T18:03:32.668Z,3.25
2023-05-13T18:08:34.340Z,3.22
2023-05-13T18:13:36.073Z,3.67
2023-05-13T18:18:37.808Z,3.80
2023-05-13T18:23:39.855Z,3.60
2023-05-13T18:28:42.564Z,4.20
2023-05-13T18:33:44.215Z,3.75
2023-05-13T18:38:47.878Z,3.33
2023-05-13T18:43:49.747Z,3.78
2023-05-13T18:48:51.473Z,3.65
2023-05-13T18:53:53.101Z,5.30
2023-05-13T18:58:54.766Z,3.80
2023-05-13T19:03:56.883Z,6.30
2023-05-13T19:08:58.636Z,5.40
2023-05-13T19:14:03.158Z,8.15
2023-05-13T19:19:05.049Z,5.55
2023-05-13T19:24:06.930Z,7.25
2023-05-13T19:29:08.574Z,5.15
2023-05-13T19:34:10.308Z,9.75
2023-05-13T19:39:12.788Z,5.50
2023-05-13T19:44:14.468Z,7.25
2023-05-13T19:49:16.131Z,5.30
2023-05-13T19:54:17.757Z,7.10
2023-05-13T19:59:19.416Z,7.25
2023-05-13T20:04:21.086Z,7.53
2023-05-13T20:09:22.713Z,8.52
2023-05-13T20:14:27.549Z,7.38
2023-05-13T20:19:29.216Z,6.18
2023-05-13T20:24:31.474Z,7.57
2023-05-13T20:29:37.591Z,5.30
2023-05-13T20:34:39.407Z,5.68
2023-05-13T20:39:41.073Z,5.82
2023-05-13T20:44:44.236Z,7.13
2023-05-13T20:49:46.600Z,6.47
2023-05-13T20:54:48.528Z,6.90
2023-05-13T20:59:50.537Z,7.75
2023-05-13T21:04:52.263Z,8.77
2023-05-13T21:09:53.915Z,9.45
2023-05-13T21:14:55.591Z,9.77
2023-05-13T21:19:57.265Z,9.25
2023-05-13T21:24:59.302Z,7.35
2023-05-13T21:30:01.075Z,7.88
2023-05-13T21:35:02.791Z,8.57
2023-05-13T21:40:05.229Z,8.00
2023-05-13T21:45:07.344Z,7.22
2023-05-13T21:50:10.455Z,9.15
2023-05-13T21:55:12.120Z,7.45
2023-05-13T22:00:19.245Z,8.68
2023-05-13T22:05:20.843Z,8.68
2023-05-13T22:10:22.807Z,8.57
2023-05-13T22:15:24.640Z,9.55
2023-05-13T22:20:26.735Z,9.30
2023-05-13T22:25:28.790Z,7.68
2023-05-13T22:30:30.416Z,9.50
2023-05-13T22:35:36.249Z,7.15
2023-05-13T22:40:38.034Z,9.90
2023-05-13T22:45:39.891Z,11.73
2023-05-13T22:50:41.539Z,11.40
2023-05-13T22:55:43.184Z,12.05
2023-05-13T23:00:44.968Z,12.23
2023-05-13T23:05:46.653Z,12.15
2023-05-13T23:10:48.393Z,14.07
2023-05-13T23:15:53.079Z,11.00
2023-05-13T23:20:58.235Z,13.27
2023-05-13T23:25:59.976Z,13.93
2023-05-13T23:31:01.761Z,13.25
2023-05-13T23:36:04.096Z,12.05
2023-05-13T23:41:05.873Z,12.52
2023-05-13T23:46:07.484Z,11.25
2023-05-13T23:51:09.201Z,13.70
2023-05-13T23:56:10.871Z,13.60
